Rawalpindi, Pakistan
Current Conditions -  °F | °C
As of 12:00 AM on Friday 19 Dec 2014 (Local Time) from OPRN Reporting Station
Haze Haze  
Wind Chill: 46°   Ceiling: Unl
Heat Index: 46°   Visibility: 0.93mi
Dew Point: 41°   Wind: 0mph
Humidity: 81%   Direction: NA
Pressure: NA   Gusts: NA
Location:  33.6°N, 73.04°E
Report Text: OPRN 181900Z 00000KT 1500 BR SKC 08/05 Q1022.9/30.20
Loading
Personal Weather Stations






























Interactive Weather Map New forecast layout! Learn more

10-Day Weather Forecast

Advertisements
Track Severe Weather on mobile